Cherokee, Iowa
Current Conditions -  °F | °C
As of 2:35 AM on Friday 24 Oct 2014 (Local Time) from KCKP Reporting Station
Clear Clear  
Wind Chill: 51°   Ceiling: Unl
Heat Index: 51°   Visibility: 10mi
Dew Point: 48°   Wind: 5mph
Humidity: 90%   Direction: 160°SSE
Pressure: 29.96"   Gusts: NA
Location:  42.75°N, 95.55°W
Report Text: KCKP 240735Z AUTO 16004KT 10SM CLR 10/09 A2996 RMK AO2 T01030087
Loading
Personal Weather Stations






























Interactive Weather Map
Tropical Storm Tracking
New forecast layout! Learn more

10-Day Weather Forecast

Advertisements
Track Severe Weather on mobile